Home PIREPS Pireps

Flight BEL12051TR

  • Submitted By: AndrĂ© Vincent
  • Departure Airport: Washington Dulles International Airport (KIAD)
  • Arrival Airport: Chicago O'Hare (KORD)
  • Aircraft: YOUR CHOICE (YC)
  • Flight Time: 02.05
  • Date Submitted: 05/10/2017
  • Status: Accepted
Flight Details
Gross Revenue:
(25 load / € 0.00 per unit
€ 0.00
Fuel Cost:
(8443 fuel used @ 5.1 / unit)
€ 43,059.30

Additional Log Information:

View Log

Aircraft Used in flight is Boeing 737-800 Paint6
12:29 Brakes are On
12:34 Brakes are Released
12:40 You Took off @ 206 Knots and Flaps at Position 2
Departure Weather
KIAD 050952Z 00000KT 10SM SCT250 12/11 A3021 RMK AO2 SLP228 T01170111rn
12:40 You are Airborne and your Navigation Lights are off
12:40 Landing Gear Up @ 212 Knots and 360 Feet
12:45 Below 10000 feet you are not allowed to go over 250 knots
14:10 You exceeded maximum bank angle
14:25 Landing Gear Down @ 152 Knots and 2520 Feet
14:28 You Landed @ 109 Knots and with -350 Vertical Speed
Arrival Weather
KORD 051151Z 00000KT 10SM FEW085 SCT140 13/07 A3021 RMK AO2 SLP229 70003 T01280072 10156 20122 56004rn
14:35 Brakes are On
14:35 Brussels Bel-Track1.0.1.2

Route Map

Corporate About Us Our Team Vacancies Information Fleet Route Network Rules and Regulations Operations Flight Schedules Event Center Tours Partners IVAO Vatsim Acars dev FSCB

fb Users Online No pilots online!
0 Pilot(s) and 70 Guest(s) Online
CMS by phpVMS - Design by Crazycreatives.com - Copyright © 2018 - Brussels Airlines Virtual